Advance, Indiana
Current Conditions -  °F | °C
As of 4:55 PM on Monday 22 Dec 2014 (Local Time) from KFKR Reporting Station
Moderate Rain Moderate Rain  
Wind Chill: 34°   Ceiling: Unl
Heat Index: 40°   Visibility: 7mi
Dew Point: 38°   Wind: 10mph
Humidity: 90%   Direction: 100°E
Pressure: 29.75"   Gusts: NA
Location:  40°N, 86.62°W
Report Text: KFKR 222155Z AUTO 10009KT 7SM RA SCT010 SCT026 05/03 A2975 RMK AO2 T00470032
Loading
Personal Weather Stations






























Interactive Weather Map New forecast layout! Learn more

10-Day Weather Forecast

Advertisements
Track Severe Weather on mobile